sensor_id;sensor_type;location;lat;lon;timestamp;P1;durP1;ratioP1;P2;durP2;ratioP2
21426;SDS011;10874;49.452;11.050;2022-09-02T00:00:03;2.03;;;1.70;;
21426;SDS011;10874;49.452;11.050;2022-09-02T00:02:34;2.33;;;1.57;;
21426;SDS011;10874;49.452;11.050;2022-09-02T00:05:01;2.10;;;1.87;;
21426;SDS011;10874;49.452;11.050;2022-09-02T00:07:27;3.67;;;1.80;;
21426;SDS011;10874;49.452;11.050;2022-09-02T00:09:54;2.17;;;1.70;;
21426;SDS011;10874;49.452;11.050;2022-09-02T00:12:22;1.63;;;1.53;;
21426;SDS011;10874;49.452;11.050;2022-09-02T00:14:49;2.07;;;1.83;;
21426;SDS011;10874;49.452;11.050;2022-09-02T00:17:16;1.83;;;1.73;;
21426;SDS011;10874;49.452;11.050;2022-09-02T00:19:42;2.80;;;1.70;;
21426;SDS011;10874;49.452;11.050;2022-09-02T00:22:09;3.53;;;1.80;;
21426;SDS011;10874;49.452;11.050;2022-09-02T00:24:36;2.10;;;1.90;;
21426;SDS011;10874;49.452;11.050;2022-09-02T00:27:03;1.70;;;1.60;;
21426;SDS011;10874;49.452;11.050;2022-09-02T00:29:30;2.10;;;1.60;;
21426;SDS011;10874;49.452;11.050;2022-09-02T00:31:57;3.70;;;1.67;;
21426;SDS011;10874;49.452;11.050;2022-09-02T00:34:24;3.33;;;1.97;;
21426;SDS011;10874;49.452;11.050;2022-09-02T00:36:51;2.70;;;1.80;;
21426;SDS011;10874;49.452;11.050;2022-09-02T00:39:18;2.67;;;1.73;;
21426;SDS011;10874;49.452;11.050;2022-09-02T00:41:46;2.73;;;1.90;;
21426;SDS011;10874;49.452;11.050;2022-09-02T00:44:14;2.67;;;1.83;;
21426;SDS011;10874;49.452;11.050;2022-09-02T00:46:41;1.60;;;1.50;;
21426;SDS011;10874;49.452;11.050;2022-09-02T00:49:17;3.43;;;1.57;;
21426;SDS011;10874;49.452;11.050;2022-09-02T00:54:33;3.47;;;2.10;;
21426;SDS011;10874;49.452;11.050;2022-09-02T00:57:02;2.37;;;2.07;;
21426;SDS011;10874;49.452;11.050;2022-09-02T00:59:50;4.57;;;1.70;;
21426;SDS011;10874;49.452;11.050;2022-09-02T01:02:21;2.53;;;1.60;;
21426;SDS011;10874;49.452;11.050;2022-09-02T01:04:51;4.33;;;1.80;;
21426;SDS011;10874;49.452;11.050;2022-09-02T01:07:22;2.20;;;2.00;;
21426;SDS011;10874;49.452;11.050;2022-09-02T01:09:49;5.77;;;2.83;;
21426;SDS011;10874;49.452;11.050;2022-09-02T01:12:16;2.53;;;1.70;;
21426;SDS011;10874;49.452;11.050;2022-09-02T01:14:44;4.33;;;2.30;;
21426;SDS011;10874;49.452;11.050;2022-09-02T01:17:10;3.67;;;1.70;;
21426;SDS011;10874;49.452;11.050;2022-09-02T01:19:39;2.87;;;2.00;;
21426;SDS011;10874;49.452;11.050;2022-09-02T01:22:18;2.00;;;1.80;;
21426;SDS011;10874;49.452;11.050;2022-09-02T01:24:45;3.13;;;1.90;;
21426;SDS011;10874;49.452;11.050;2022-09-02T01:27:16;3.37;;;2.00;;
21426;SDS011;10874;49.452;11.050;2022-09-02T01:29:43;2.17;;;1.97;;
21426;SDS011;10874;49.452;11.050;2022-09-02T01:32:10;1.93;;;1.73;;
21426;SDS011;10874;49.452;11.050;2022-09-02T01:34:37;2.97;;;1.73;;
21426;SDS011;10874;49.452;11.050;2022-09-02T01:37:04;2.93;;;2.00;;
21426;SDS011;10874;49.452;11.050;2022-09-02T01:39:32;2.57;;;1.70;;
21426;SDS011;10874;49.452;11.050;2022-09-02T01:41:59;2.27;;;1.67;;
21426;SDS011;10874;49.452;11.050;2022-09-02T01:44:27;3.80;;;1.90;;
21426;SDS011;10874;49.452;11.050;2022-09-02T01:46:54;2.27;;;1.80;;
21426;SDS011;10874;49.452;11.050;2022-09-02T01:49:21;1.63;;;1.53;;
21426;SDS011;10874;49.452;11.050;2022-09-02T01:51:49;2.03;;;1.60;;
21426;SDS011;10874;49.452;11.050;2022-09-02T01:54:19;2.00;;;1.70;;
21426;SDS011;10874;49.452;11.050;2022-09-02T01:56:46;2.50;;;1.77;;
21426;SDS011;10874;49.452;11.050;2022-09-02T01:59:13;2.70;;;1.63;;
21426;SDS011;10874;49.452;11.050;2022-09-02T02:01:44;2.10;;;1.90;;
21426;SDS011;10874;49.452;11.050;2022-09-02T02:04:12;3.03;;;1.90;;
21426;SDS011;10874;49.452;11.050;2022-09-02T02:06:44;3.47;;;2.17;;
21426;SDS011;10874;49.452;11.050;2022-09-02T02:09:18;3.17;;;1.90;;
21426;SDS011;10874;49.452;11.050;2022-09-02T02:11:45;2.97;;;2.07;;
21426;SDS011;10874;49.452;11.050;2022-09-02T02:14:14;2.20;;;2.00;;
21426;SDS011;10874;49.452;11.050;2022-09-02T02:16:46;3.20;;;2.00;;
21426;SDS011;10874;49.452;11.050;2022-09-02T02:19:13;2.73;;;2.10;;
21426;SDS011;10874;49.452;11.050;2022-09-02T02:21:40;2.77;;;2.07;;
21426;SDS011;10874;49.452;11.050;2022-09-02T02:24:07;4.37;;;2.07;;
21426;SDS011;10874;49.452;11.050;2022-09-02T02:26:35;2.63;;;2.00;;
21426;SDS011;10874;49.452;11.050;2022-09-02T02:29:03;2.57;;;1.83;;
21426;SDS011;10874;49.452;11.050;2022-09-02T02:31:31;3.27;;;1.83;;
21426;SDS011;10874;49.452;11.050;2022-09-02T02:33:58;2.90;;;2.10;;
21426;SDS011;10874;49.452;11.050;2022-09-02T02:36:25;2.03;;;1.83;;
21426;SDS011;10874;49.452;11.050;2022-09-02T02:38:52;2.07;;;1.90;;
21426;SDS011;10874;49.452;11.050;2022-09-02T02:41:19;2.13;;;1.93;;
21426;SDS011;10874;49.452;11.050;2022-09-02T02:43:47;6.30;;;1.93;;
21426;SDS011;10874;49.452;11.050;2022-09-02T02:46:14;2.30;;;2.10;;
21426;SDS011;10874;49.452;11.050;2022-09-02T02:48:41;2.53;;;1.93;;
21426;SDS011;10874;49.452;11.050;2022-09-02T02:51:09;1.90;;;1.50;;
21426;SDS011;10874;49.452;11.050;2022-09-02T02:53:36;2.10;;;1.90;;
21426;SDS011;10874;49.452;11.050;2022-09-02T02:56:04;2.77;;;1.70;;
21426;SDS011;10874;49.452;11.050;2022-09-02T02:58:31;5.67;;;1.87;;
21426;SDS011;10874;49.452;11.050;2022-09-02T03:00:58;2.37;;;1.80;;
21426;SDS011;10874;49.452;11.050;2022-09-02T03:03:27;1.87;;;1.77;;
21426;SDS011;10874;49.452;11.050;2022-09-02T03:05:55;3.93;;;1.73;;
21426;SDS011;10874;49.452;11.050;2022-09-02T03:08:22;1.93;;;1.73;;
21426;SDS011;10874;49.452;11.050;2022-09-02T03:10:52;1.90;;;1.67;;
21426;SDS011;10874;49.452;11.050;2022-09-02T03:13:22;2.73;;;1.80;;
21426;SDS011;10874;49.452;11.050;2022-09-02T03:15:49;2.10;;;1.80;;
21426;SDS011;10874;49.452;11.050;2022-09-02T03:18:17;1.87;;;1.77;;
21426;SDS011;10874;49.452;11.050;2022-09-02T03:20:46;2.83;;;2.33;;
21426;SDS011;10874;49.452;11.050;2022-09-02T03:23:14;1.97;;;1.50;;
21426;SDS011;10874;49.452;11.050;2022-09-02T03:25:45;1.87;;;1.77;;
21426;SDS011;10874;49.452;11.050;2022-09-02T03:28:23;2.07;;;1.77;;
21426;SDS011;10874;49.452;11.050;2022-09-02T03:30:51;1.73;;;1.63;;
21426;SDS011;10874;49.452;11.050;2022-09-02T03:33:17;2.10;;;1.90;;
21426;SDS011;10874;49.452;11.050;2022-09-02T03:35:45;1.70;;;1.60;;
21426;SDS011;10874;49.452;11.050;2022-09-02T03:38:12;2.77;;;1.97;;
21426;SDS011;10874;49.452;11.050;2022-09-02T03:40:39;3.00;;;1.80;;
21426;SDS011;10874;49.452;11.050;2022-09-02T03:43:06;2.60;;;1.70;;
21426;SDS011;10874;49.452;11.050;2022-09-02T03:45:35;4.60;;;2.20;;
21426;SDS011;10874;49.452;11.050;2022-09-02T03:48:04;3.20;;;1.90;;
21426;SDS011;10874;49.452;11.050;2022-09-02T03:50:36;2.33;;;1.73;;
21426;SDS011;10874;49.452;11.050;2022-09-02T03:53:07;3.30;;;1.63;;
21426;SDS011;10874;49.452;11.050;2022-09-02T03:55:36;2.60;;;1.80;;
21426;SDS011;10874;49.452;11.050;2022-09-02T03:58:03;2.93;;;1.67;;
21426;SDS011;10874;49.452;11.050;2022-09-02T04:00:35;2.80;;;1.80;;
21426;SDS011;10874;49.452;11.050;2022-09-02T04:03:04;2.60;;;1.70;;
21426;SDS011;10874;49.452;11.050;2022-09-02T04:05:32;2.90;;;1.80;;
21426;SDS011;10874;49.452;11.050;2022-09-02T04:07:59;2.00;;;1.80;;
21426;SDS011;10874;49.452;11.050;2022-09-02T04:10:27;2.27;;;1.60;;
21426;SDS011;10874;49.452;11.050;2022-09-02T04:12:54;4.03;;;2.00;;
21426;SDS011;10874;49.452;11.050;2022-09-02T04:15:21;2.87;;;1.60;;
21426;SDS011;10874;49.452;11.050;2022-09-02T04:21:15;2.10;;;1.70;;
21426;SDS011;10874;49.452;11.050;2022-09-02T04:23:42;1.83;;;1.57;;
21426;SDS011;10874;49.452;11.050;2022-09-02T04:26:10;2.60;;;1.43;;
21426;SDS011;10874;49.452;11.050;2022-09-02T04:28:37;1.60;;;1.50;;
21426;SDS011;10874;49.452;11.050;2022-09-02T04:31:05;3.23;;;1.80;;
21426;SDS011;10874;49.452;11.050;2022-09-02T04:33:33;2.33;;;1.70;;
21426;SDS011;10874;49.452;11.050;2022-09-02T04:36:03;3.97;;;2.00;;
21426;SDS011;10874;49.452;11.050;2022-09-02T04:38:30;2.07;;;1.80;;
21426;SDS011;10874;49.452;11.050;2022-09-02T04:40:58;3.37;;;2.23;;
21426;SDS011;10874;49.452;11.050;2022-09-02T04:43:26;2.50;;;1.77;;
21426;SDS011;10874;49.452;11.050;2022-09-02T04:45:53;1.80;;;1.70;;
21426;SDS011;10874;49.452;11.050;2022-09-02T04:48:21;2.90;;;2.00;;
21426;SDS011;10874;49.452;11.050;2022-09-02T04:50:49;2.03;;;1.80;;
21426;SDS011;10874;49.452;11.050;2022-09-02T04:53:18;3.03;;;1.83;;
21426;SDS011;10874;49.452;11.050;2022-09-02T04:55:45;2.10;;;1.90;;
21426;SDS011;10874;49.452;11.050;2022-09-02T04:58:13;3.10;;;1.67;;
21426;SDS011;10874;49.452;11.050;2022-09-02T05:00:42;1.90;;;1.60;;
21426;SDS011;10874;49.452;11.050;2022-09-02T05:03:11;1.87;;;1.73;;
21426;SDS011;10874;49.452;11.050;2022-09-02T05:05:40;3.70;;;1.93;;
21426;SDS011;10874;49.452;11.050;2022-09-02T05:08:09;3.07;;;1.97;;
21426;SDS011;10874;49.452;11.050;2022-09-02T05:10:39;1.73;;;1.63;;
21426;SDS011;10874;49.452;11.050;2022-09-02T05:13:06;2.30;;;2.10;;
21426;SDS011;10874;49.452;11.050;2022-09-02T05:15:37;2.00;;;1.63;;
21426;SDS011;10874;49.452;11.050;2022-09-02T05:18:06;2.40;;;1.77;;
21426;SDS011;10874;49.452;11.050;2022-09-02T05:20:33;2.67;;;1.90;;
21426;SDS011;10874;49.452;11.050;2022-09-02T05:23:00;3.90;;;2.10;;
21426;SDS011;10874;49.452;11.050;2022-09-02T05:25:27;1.90;;;1.70;;
21426;SDS011;10874;49.452;11.050;2022-09-02T05:27:54;1.83;;;1.53;;
21426;SDS011;10874;49.452;11.050;2022-09-02T05:30:21;2.37;;;1.67;;
21426;SDS011;10874;49.452;11.050;2022-09-02T05:32:49;2.30;;;1.70;;
21426;SDS011;10874;49.452;11.050;2022-09-02T05:35:17;2.00;;;1.43;;
21426;SDS011;10874;49.452;11.050;2022-09-02T05:37:44;1.80;;;1.70;;
21426;SDS011;10874;49.452;11.050;2022-09-02T05:40:11;2.17;;;1.80;;
21426;SDS011;10874;49.452;11.050;2022-09-02T05:42:41;4.97;;;1.90;;
21426;SDS011;10874;49.452;11.050;2022-09-02T05:45:11;3.10;;;1.73;;
21426;SDS011;10874;49.452;11.050;2022-09-02T05:47:42;5.40;;;1.43;;
21426;SDS011;10874;49.452;11.050;2022-09-02T05:50:09;2.70;;;1.90;;
21426;SDS011;10874;49.452;11.050;2022-09-02T05:52:41;2.47;;;1.67;;
21426;SDS011;10874;49.452;11.050;2022-09-02T05:55:09;4.63;;;1.80;;
21426;SDS011;10874;49.452;11.050;2022-09-02T05:57:37;4.20;;;1.90;;
21426;SDS011;10874;49.452;11.050;2022-09-02T06:00:07;3.17;;;1.80;;
21426;SDS011;10874;49.452;11.050;2022-09-02T06:02:40;5.43;;;2.37;;
21426;SDS011;10874;49.452;11.050;2022-09-02T06:05:12;2.57;;;1.70;;
21426;SDS011;10874;49.452;11.050;2022-09-02T06:07:45;4.47;;;1.83;;
21426;SDS011;10874;49.452;11.050;2022-09-02T06:10:12;2.93;;;1.70;;
21426;SDS011;10874;49.452;11.050;2022-09-02T06:12:39;1.50;;;1.40;;
21426;SDS011;10874;49.452;11.050;2022-09-02T06:15:09;3.80;;;1.60;;
21426;SDS011;10874;49.452;11.050;2022-09-02T06:17:38;1.70;;;1.50;;
21426;SDS011;10874;49.452;11.050;2022-09-02T06:20:06;2.47;;;1.33;;
21426;SDS011;10874;49.452;11.050;2022-09-02T06:22:35;3.63;;;1.67;;
21426;SDS011;10874;49.452;11.050;2022-09-02T06:25:02;3.10;;;1.80;;
21426;SDS011;10874;49.452;11.050;2022-09-02T06:27:29;1.73;;;1.60;;
21426;SDS011;10874;49.452;11.050;2022-09-02T06:29:58;1.60;;;1.50;;
21426;SDS011;10874;49.452;11.050;2022-09-02T06:32:25;4.50;;;1.90;;
21426;SDS011;10874;49.452;11.050;2022-09-02T06:34:58;2.57;;;1.73;;
21426;SDS011;10874;49.452;11.050;2022-09-02T06:37:26;2.30;;;1.70;;
21426;SDS011;10874;49.452;11.050;2022-09-02T06:39:53;1.77;;;1.67;;
21426;SDS011;10874;49.452;11.050;2022-09-02T06:42:23;2.73;;;1.57;;
21426;SDS011;10874;49.452;11.050;2022-09-02T06:45:20;3.57;;;1.83;;
21426;SDS011;10874;49.452;11.050;2022-09-02T06:47:53;1.63;;;1.50;;
21426;SDS011;10874;49.452;11.050;2022-09-02T06:50:20;1.80;;;1.67;;
21426;SDS011;10874;49.452;11.050;2022-09-02T06:52:48;4.40;;;1.90;;
21426;SDS011;10874;49.452;11.050;2022-09-02T06:55:16;2.70;;;1.80;;
21426;SDS011;10874;49.452;11.050;2022-09-02T06:57:43;2.73;;;1.80;;
21426;SDS011;10874;49.452;11.050;2022-09-02T07:00:12;1.60;;;1.47;;
21426;SDS011;10874;49.452;11.050;2022-09-02T07:02:41;1.43;;;1.33;;
21426;SDS011;10874;49.452;11.050;2022-09-02T07:05:08;2.07;;;1.80;;
21426;SDS011;10874;49.452;11.050;2022-09-02T07:07:36;4.73;;;2.00;;
21426;SDS011;10874;49.452;11.050;2022-09-02T07:10:08;1.73;;;1.63;;
21426;SDS011;10874;49.452;11.050;2022-09-02T07:12:37;2.33;;;1.73;;
21426;SDS011;10874;49.452;11.050;2022-09-02T07:15:07;2.00;;;1.73;;
21426;SDS011;10874;49.452;11.050;2022-09-02T07:17:39;2.10;;;1.57;;
21426;SDS011;10874;49.452;11.050;2022-09-02T07:20:10;2.00;;;1.60;;
21426;SDS011;10874;49.452;11.050;2022-09-02T07:22:42;2.80;;;1.77;;
21426;SDS011;10874;49.452;11.050;2022-09-02T07:25:13;1.60;;;1.50;;
21426;SDS011;10874;49.452;11.050;2022-09-02T07:27:40;2.90;;;1.70;;
21426;SDS011;10874;49.452;11.050;2022-09-02T07:30:10;3.57;;;2.00;;
21426;SDS011;10874;49.452;11.050;2022-09-02T07:32:38;3.13;;;1.67;;
21426;SDS011;10874;49.452;11.050;2022-09-02T07:35:07;3.20;;;1.63;;
21426;SDS011;10874;49.452;11.050;2022-09-02T07:37:35;1.87;;;1.50;;
21426;SDS011;10874;49.452;11.050;2022-09-02T07:40:05;4.00;;;1.60;;
21426;SDS011;10874;49.452;11.050;2022-09-02T07:42:33;2.80;;;1.93;;
21426;SDS011;10874;49.452;11.050;2022-09-02T07:45:00;3.00;;;1.53;;
21426;SDS011;10874;49.452;11.050;2022-09-02T07:47:27;2.40;;;1.70;;
21426;SDS011;10874;49.452;11.050;2022-09-02T07:49:56;2.23;;;1.77;;
21426;SDS011;10874;49.452;11.050;2022-09-02T07:52:43;1.43;;;1.33;;
21426;SDS011;10874;49.452;11.050;2022-09-02T07:55:10;1.50;;;1.40;;
21426;SDS011;10874;49.452;11.050;2022-09-02T07:57:42;2.00;;;1.60;;
21426;SDS011;10874;49.452;11.050;2022-09-02T08:00:09;3.60;;;1.63;;
21426;SDS011;10874;49.452;11.050;2022-09-02T08:02:44;2.83;;;1.57;;
21426;SDS011;10874;49.452;11.050;2022-09-02T08:05:16;3.10;;;1.60;;
21426;SDS011;10874;49.452;11.050;2022-09-02T08:07:43;3.13;;;1.80;;
21426;SDS011;10874;49.452;11.050;2022-09-02T08:10:11;3.17;;;1.80;;
21426;SDS011;10874;49.452;11.050;2022-09-02T08:12:39;3.17;;;2.00;;
21426;SDS011;10874;49.452;11.050;2022-09-02T08:15:07;5.83;;;1.83;;
21426;SDS011;10874;49.452;11.050;2022-09-02T08:17:34;6.10;;;1.93;;
21426;SDS011;10874;49.452;11.050;2022-09-02T08:20:02;2.77;;;1.47;;
21426;SDS011;10874;49.452;11.050;2022-09-02T08:22:32;2.90;;;1.60;;
21426;SDS011;10874;49.452;11.050;2022-09-02T08:25:04;3.07;;;1.70;;
21426;SDS011;10874;49.452;11.050;2022-09-02T08:27:31;2.83;;;1.40;;
21426;SDS011;10874;49.452;11.050;2022-09-02T08:29:59;1.60;;;1.50;;
21426;SDS011;10874;49.452;11.050;2022-09-02T08:32:27;2.40;;;1.50;;
21426;SDS011;10874;49.452;11.050;2022-09-02T08:34:54;3.00;;;1.40;;
21426;SDS011;10874;49.452;11.050;2022-09-02T08:37:21;1.73;;;1.20;;
21426;SDS011;10874;49.452;11.050;2022-09-02T08:39:48;1.93;;;1.57;;
21426;SDS011;10874;49.452;11.050;2022-09-02T08:44:41;1.60;;;1.33;;
21426;SDS011;10874;49.452;11.050;2022-09-02T08:47:10;1.97;;;1.10;;
21426;SDS011;10874;49.452;11.050;2022-09-02T08:49:40;1.60;;;1.50;;
21426;SDS011;10874;49.452;11.050;2022-09-02T08:52:07;2.87;;;1.40;;
21426;SDS011;10874;49.452;11.050;2022-09-02T08:54:45;1.60;;;1.20;;
21426;SDS011;10874;49.452;11.050;2022-09-02T08:57:14;1.87;;;1.27;;
21426;SDS011;10874;49.452;11.050;2022-09-02T08:59:40;1.77;;;1.23;;
21426;SDS011;10874;49.452;11.050;2022-09-02T09:04:56;2.67;;;1.30;;
21426;SDS011;10874;49.452;11.050;2022-09-02T09:07:36;2.00;;;1.40;;
21426;SDS011;10874;49.452;11.050;2022-09-02T09:10:18;2.40;;;1.43;;
21426;SDS011;10874;49.452;11.050;2022-09-02T09:15:31;1.43;;;1.33;;
21426;SDS011;10874;49.452;11.050;2022-09-02T09:18:00;1.80;;;1.33;;
21426;SDS011;10874;49.452;11.050;2022-09-02T09:20:31;2.17;;;1.20;;
21426;SDS011;10874;49.452;11.050;2022-09-02T09:22:59;1.30;;;1.10;;
21426;SDS011;10874;49.452;11.050;2022-09-02T09:25:27;2.10;;;1.43;;
21426;SDS011;10874;49.452;11.050;2022-09-02T09:27:57;1.60;;;1.03;;
21426;SDS011;10874;49.452;11.050;2022-09-02T09:30:24;1.50;;;1.10;;
21426;SDS011;10874;49.452;11.050;2022-09-02T09:32:52;1.60;;;1.40;;
21426;SDS011;10874;49.452;11.050;2022-09-02T09:35:23;2.17;;;1.30;;
21426;SDS011;10874;49.452;11.050;2022-09-02T09:37:50;1.60;;;1.10;;
21426;SDS011;10874;49.452;11.050;2022-09-02T09:40:19;1.30;;;1.10;;
21426;SDS011;10874;49.452;11.050;2022-09-02T09:42:57;1.47;;;0.90;;
21426;SDS011;10874;49.452;11.050;2022-09-02T09:45:29;1.57;;;1.07;;
21426;SDS011;10874;49.452;11.050;2022-09-02T09:48:14;2.30;;;1.10;;
21426;SDS011;10874;49.452;11.050;2022-09-02T09:50:43;1.20;;;1.10;;
21426;SDS011;10874;49.452;11.050;2022-09-02T09:53:20;3.07;;;1.20;;
21426;SDS011;10874;49.452;11.050;2022-09-02T09:56:03;2.70;;;1.10;;
21426;SDS011;10874;49.452;11.050;2022-09-02T09:58:32;1.33;;;1.13;;
21426;SDS011;10874;49.452;11.050;2022-09-02T10:01:19;1.97;;;0.80;;
21426;SDS011;10874;49.452;11.050;2022-09-02T10:06:18;2.07;;;1.03;;
21426;SDS011;10874;49.452;11.050;2022-09-02T10:08:49;1.50;;;1.20;;
21426;SDS011;10874;49.452;11.050;2022-09-02T10:11:21;1.50;;;0.83;;
21426;SDS011;10874;49.452;11.050;2022-09-02T10:13:48;0.93;;;0.93;;
21426;SDS011;10874;49.452;11.050;2022-09-02T10:19:00;1.43;;;1.17;;
21426;SDS011;10874;49.452;11.050;2022-09-02T10:26:57;3.50;;;1.13;;
21426;SDS011;10874;49.452;11.050;2022-09-02T10:35:20;2.00;;;1.23;;
21426;SDS011;10874;49.452;11.050;2022-09-02T10:38:11;1.60;;;1.07;;
21426;SDS011;10874;49.452;11.050;2022-09-02T10:41:00;1.60;;;1.20;;
21426;SDS011;10874;49.452;11.050;2022-09-02T10:46:10;2.30;;;1.00;;
21426;SDS011;10874;49.452;11.050;2022-09-02T10:48:49;0.97;;;0.90;;
21426;SDS011;10874;49.452;11.050;2022-09-02T10:51:32;1.90;;;1.03;;
21426;SDS011;10874;49.452;11.050;2022-09-02T10:54:07;2.70;;;1.33;;
21426;SDS011;10874;49.452;11.050;2022-09-02T10:56:42;1.47;;;1.37;;
21426;SDS011;10874;49.452;11.050;2022-09-02T10:59:23;1.40;;;1.30;;
21426;SDS011;10874;49.452;11.050;2022-09-02T11:01:53;2.20;;;1.00;;
21426;SDS011;10874;49.452;11.050;2022-09-02T11:06:53;1.20;;;1.10;;
21426;SDS011;10874;49.452;11.050;2022-09-02T11:09:33;1.40;;;1.30;;
21426;SDS011;10874;49.452;11.050;2022-09-02T11:12:10;1.93;;;1.20;;
21426;SDS011;10874;49.452;11.050;2022-09-02T11:14:58;1.37;;;1.27;;
21426;SDS011;10874;49.452;11.050;2022-09-02T11:17:32;1.17;;;1.03;;
21426;SDS011;10874;49.452;11.050;2022-09-02T11:20:08;3.90;;;1.40;;
21426;SDS011;10874;49.452;11.050;2022-09-02T11:25:24;1.23;;;1.10;;
21426;SDS011;10874;49.452;11.050;2022-09-02T11:28:05;1.43;;;1.00;;
21426;SDS011;10874;49.452;11.050;2022-09-02T11:30:44;2.00;;;1.33;;
21426;SDS011;10874;49.452;11.050;2022-09-02T11:33:20;2.35;;;1.20;;
21426;SDS011;10874;49.452;11.050;2022-09-02T11:35:48;2.28;;;1.00;;
21426;SDS011;10874;49.452;11.050;2022-09-02T11:43:43;1.02;;;0.85;;
21426;SDS011;10874;49.452;11.050;2022-09-02T11:54:14;1.20;;;1.10;;
21426;SDS011;10874;49.452;11.050;2022-09-02T11:56:47;1.40;;;0.97;;
21426;SDS011;10874;49.452;11.050;2022-09-02T11:59:18;1.33;;;1.00;;
21426;SDS011;10874;49.452;11.050;2022-09-02T12:01:46;1.42;;;0.90;;
21426;SDS011;10874;49.452;11.050;2022-09-02T12:12:08;1.27;;;0.80;;
21426;SDS011;10874;49.452;11.050;2022-09-02T12:17:08;1.70;;;1.07;;
21426;SDS011;10874;49.452;11.050;2022-09-02T12:27:23;1.00;;;0.90;;
21426;SDS011;10874;49.452;11.050;2022-09-02T12:29:50;1.73;;;0.90;;
21426;SDS011;10874;49.452;11.050;2022-09-02T12:35:10;1.43;;;1.03;;
21426;SDS011;10874;49.452;11.050;2022-09-02T12:40:28;2.33;;;1.00;;
21426;SDS011;10874;49.452;11.050;2022-09-02T12:42:58;1.37;;;1.00;;
21426;SDS011;10874;49.452;11.050;2022-09-02T12:45:26;1.10;;;1.00;;
21426;SDS011;10874;49.452;11.050;2022-09-02T12:55:33;1.43;;;1.00;;
21426;SDS011;10874;49.452;11.050;2022-09-02T12:58:11;2.10;;;1.00;;
21426;SDS011;10874;49.452;11.050;2022-09-02T13:05:52;1.83;;;1.00;;
21426;SDS011;10874;49.452;11.050;2022-09-02T13:13:56;1.10;;;1.00;;
21426;SDS011;10874;49.452;11.050;2022-09-02T13:32:00;1.17;;;0.90;;
21426;SDS011;10874;49.452;11.050;2022-09-02T13:34:30;1.03;;;0.93;;
21426;SDS011;10874;49.452;11.050;2022-09-02T13:36:57;1.07;;;0.97;;
21426;SDS011;10874;49.452;11.050;2022-09-02T13:39:25;1.37;;;1.13;;
21426;SDS011;10874;49.452;11.050;2022-09-02T13:41:52;1.10;;;0.90;;
21426;SDS011;10874;49.452;11.050;2022-09-02T13:44:20;1.00;;;1.00;;
21426;SDS011;10874;49.452;11.050;2022-09-02T13:46:49;1.43;;;1.00;;
21426;SDS011;10874;49.452;11.050;2022-09-02T13:49:21;1.80;;;0.93;;
21426;SDS011;10874;49.452;11.050;2022-09-02T13:51:48;1.17;;;1.00;;
21426;SDS011;10874;49.452;11.050;2022-09-02T13:54:36;1.10;;;1.00;;
21426;SDS011;10874;49.452;11.050;2022-09-02T13:57:05;1.23;;;1.13;;
21426;SDS011;10874;49.452;11.050;2022-09-02T13:59:33;0.80;;;0.80;;
21426;SDS011;10874;49.452;11.050;2022-09-02T14:02:14;1.20;;;1.00;;
21426;SDS011;10874;49.452;11.050;2022-09-02T14:04:41;0.83;;;0.83;;
21426;SDS011;10874;49.452;11.050;2022-09-02T14:07:08;1.20;;;1.10;;
21426;SDS011;10874;49.452;11.050;2022-09-02T14:09:35;0.93;;;0.90;;
21426;SDS011;10874;49.452;11.050;2022-09-02T14:12:03;1.43;;;1.00;;
21426;SDS011;10874;49.452;11.050;2022-09-02T14:14:31;2.03;;;0.90;;
21426;SDS011;10874;49.452;11.050;2022-09-02T14:17:21;3.53;;;1.20;;
21426;SDS011;10874;49.452;11.050;2022-09-02T14:19:48;0.77;;;0.77;;
21426;SDS011;10874;49.452;11.050;2022-09-02T14:22:27;0.90;;;0.90;;
21426;SDS011;10874;49.452;11.050;2022-09-02T14:24:55;1.40;;;1.03;;
21426;SDS011;10874;49.452;11.050;2022-09-02T14:27:22;1.53;;;0.77;;
21426;SDS011;10874;49.452;11.050;2022-09-02T14:29:55;1.30;;;1.07;;
21426;SDS011;10874;49.452;11.050;2022-09-02T14:32:23;2.10;;;1.00;;
21426;SDS011;10874;49.452;11.050;2022-09-02T14:35:11;1.57;;;1.00;;
21426;SDS011;10874;49.452;11.050;2022-09-02T14:37:48;1.00;;;0.90;;
21426;SDS011;10874;49.452;11.050;2022-09-02T14:40:15;1.10;;;1.00;;
21426;SDS011;10874;49.452;11.050;2022-09-02T14:42:47;1.17;;;1.07;;
21426;SDS011;10874;49.452;11.050;2022-09-02T14:45:22;1.43;;;1.20;;
21426;SDS011;10874;49.452;11.050;2022-09-02T14:47:49;1.43;;;1.10;;
21426;SDS011;10874;49.452;11.050;2022-09-02T14:50:17;1.27;;;1.10;;
21426;SDS011;10874;49.452;11.050;2022-09-02T14:52:46;1.00;;;1.00;;
21426;SDS011;10874;49.452;11.050;2022-09-02T14:55:38;0.90;;;0.90;;
21426;SDS011;10874;49.452;11.050;2022-09-02T14:58:03;1.23;;;1.00;;
21426;SDS011;10874;49.452;11.050;2022-09-02T15:00:30;0.90;;;0.90;;
21426;SDS011;10874;49.452;11.050;2022-09-02T15:03:00;0.97;;;0.87;;
21426;SDS011;10874;49.452;11.050;2022-09-02T15:05:27;1.73;;;1.07;;
21426;SDS011;10874;49.452;11.050;2022-09-02T15:07:54;1.10;;;1.00;;
21426;SDS011;10874;49.452;11.050;2022-09-02T15:10:22;1.03;;;0.80;;
21426;SDS011;10874;49.452;11.050;2022-09-02T15:12:49;1.23;;;1.10;;
21426;SDS011;10874;49.452;11.050;2022-09-02T15:15:17;2.77;;;1.00;;
21426;SDS011;10874;49.452;11.050;2022-09-02T15:17:44;1.63;;;0.90;;
21426;SDS011;10874;49.452;11.050;2022-09-02T15:20:11;0.93;;;0.90;;
21426;SDS011;10874;49.452;11.050;2022-09-02T15:22:38;1.10;;;1.00;;
21426;SDS011;10874;49.452;11.050;2022-09-02T15:25:05;1.23;;;0.97;;
21426;SDS011;10874;49.452;11.050;2022-09-02T15:27:33;1.00;;;0.90;;
21426;SDS011;10874;49.452;11.050;2022-09-02T15:30:01;1.07;;;0.97;;
21426;SDS011;10874;49.452;11.050;2022-09-02T15:32:27;0.93;;;0.93;;
21426;SDS011;10874;49.452;11.050;2022-09-02T15:34:54;2.20;;;1.03;;
21426;SDS011;10874;49.452;11.050;2022-09-02T15:37:21;1.10;;;1.00;;
21426;SDS011;10874;49.452;11.050;2022-09-02T15:39:48;1.90;;;0.97;;
21426;SDS011;10874;49.452;11.050;2022-09-02T15:42:15;0.80;;;0.80;;
21426;SDS011;10874;49.452;11.050;2022-09-02T15:44:44;1.00;;;0.90;;
21426;SDS011;10874;49.452;11.050;2022-09-02T15:47:11;0.83;;;0.83;;
21426;SDS011;10874;49.452;11.050;2022-09-02T15:49:38;1.43;;;1.03;;
21426;SDS011;10874;49.452;11.050;2022-09-02T15:52:05;1.83;;;0.90;;
21426;SDS011;10874;49.452;11.050;2022-09-02T15:54:32;0.80;;;0.80;;
21426;SDS011;10874;49.452;11.050;2022-09-02T15:56:59;1.43;;;1.10;;
21426;SDS011;10874;49.452;11.050;2022-09-02T15:59:26;1.33;;;1.10;;
21426;SDS011;10874;49.452;11.050;2022-09-02T16:01:54;1.40;;;1.03;;
21426;SDS011;10874;49.452;11.050;2022-09-02T16:04:21;1.67;;;1.10;;
21426;SDS011;10874;49.452;11.050;2022-09-02T16:06:49;1.10;;;1.00;;
21426;SDS011;10874;49.452;11.050;2022-09-02T16:09:17;1.27;;;1.10;;
21426;SDS011;10874;49.452;11.050;2022-09-02T16:11:49;1.30;;;1.10;;
21426;SDS011;10874;49.452;11.050;2022-09-02T16:14:16;1.57;;;1.47;;
21426;SDS011;10874;49.452;11.050;2022-09-02T16:16:46;1.53;;;0.90;;
21426;SDS011;10874;49.452;11.050;2022-09-02T16:19:15;1.70;;;1.27;;
21426;SDS011;10874;49.452;11.050;2022-09-02T16:21:41;1.97;;;1.20;;
21426;SDS011;10874;49.452;11.050;2022-09-02T16:24:08;1.83;;;1.07;;
21426;SDS011;10874;49.452;11.050;2022-09-02T16:26:39;1.10;;;1.00;;
21426;SDS011;10874;49.452;11.050;2022-09-02T16:29:07;1.47;;;1.30;;
21426;SDS011;10874;49.452;11.050;2022-09-02T16:31:36;1.67;;;1.20;;
21426;SDS011;10874;49.452;11.050;2022-09-02T16:34:08;1.07;;;0.97;;
21426;SDS011;10874;49.452;11.050;2022-09-02T16:36:36;1.20;;;1.10;;